createdAt,value
2023-04-18T00:00:53.291Z,53.44
2023-04-18T00:03:23.864Z,53.47
2023-04-18T00:05:53.399Z,52.90
2023-04-18T00:08:22.295Z,52.76
2023-04-18T00:10:51.391Z,52.18
2023-04-18T00:13:20.292Z,51.59
2023-04-18T00:15:49.360Z,50.74
2023-04-18T00:18:20.447Z,50.31
2023-04-18T00:20:50.829Z,50.17
2023-04-18T00:23:22.349Z,50.95
2023-04-18T00:25:51.423Z,51.26
2023-04-18T00:28:20.366Z,51.08
2023-04-18T00:30:51.150Z,50.50
2023-04-18T00:33:20.333Z,50.24
2023-04-18T00:35:51.024Z,49.83
2023-04-18T00:38:19.992Z,49.36
2023-04-18T00:40:50.198Z,49.09
2023-04-18T00:43:19.171Z,49.23
2023-04-18T00:45:48.119Z,49.28
2023-04-18T00:48:18.030Z,49.57
2023-04-18T00:50:47.290Z,50.25
2023-04-18T00:53:17.994Z,50.95
2023-04-18T00:55:48.140Z,52.08
2023-04-18T00:58:17.888Z,52.72
2023-04-18T01:00:48.390Z,52.76
2023-04-18T01:03:18.546Z,52.70
2023-04-18T01:05:48.655Z,53.20
2023-04-18T01:08:20.016Z,53.75
2023-04-18T01:10:49.389Z,51.82
2023-04-18T01:13:20.873Z,50.87
2023-04-18T01:15:51.732Z,50.85
2023-04-18T01:18:20.951Z,50.71
2023-04-18T01:20:51.693Z,50.57
2023-04-18T01:23:24.317Z,50.70
2023-04-18T01:25:54.700Z,50.84
2023-04-18T01:28:23.736Z,50.67
2023-04-18T01:30:52.895Z,50.58
2023-04-18T01:33:21.863Z,50.22
2023-04-18T01:35:51.068Z,50.71
2023-04-18T01:38:20.216Z,51.25
2023-04-18T01:40:49.891Z,51.38
2023-04-18T01:43:20.232Z,51.61
2023-04-18T01:45:49.369Z,51.33
2023-04-18T01:48:18.391Z,51.24
2023-04-18T01:50:47.421Z,51.02
2023-04-18T01:53:17.728Z,51.10
2023-04-18T01:55:46.904Z,52.00
2023-04-18T01:58:16.359Z,51.84
2023-04-18T02:00:46.874Z,52.50
2023-04-18T02:03:16.070Z,52.82
2023-04-18T02:05:45.292Z,53.67
2023-04-18T02:08:14.601Z,53.28
2023-04-18T02:10:44.045Z,53.73
2023-04-18T02:13:14.594Z,54.37
2023-04-18T02:15:46.690Z,55.56
2023-04-18T02:18:18.519Z,55.02
2023-04-18T02:20:49.048Z,55.10
2023-04-18T02:23:17.995Z,55.70
2023-04-18T02:25:47.115Z,54.51
2023-04-18T02:28:18.155Z,54.78
2023-04-18T02:30:48.590Z,54.74
2023-04-18T02:33:17.560Z,55.05
2023-04-18T02:35:46.975Z,54.91
2023-04-18T02:38:18.050Z,55.29
2023-04-18T02:40:47.029Z,55.34
2023-04-18T02:43:16.101Z,55.24
2023-04-18T02:45:45.175Z,55.24
2023-04-18T02:48:15.748Z,55.75
2023-04-18T02:50:47.571Z,55.94
2023-04-18T02:53:17.041Z,55.86
2023-04-18T02:55:55.757Z,56.89
2023-04-18T02:58:31.765Z,57.51
2023-04-18T03:01:33.120Z,56.77
2023-04-18T03:04:23.866Z,57.45
2023-04-18T03:06:59.365Z,58.07
2023-04-18T03:09:29.743Z,57.86
2023-04-18T03:12:04.095Z,58.00
2023-04-18T03:14:34.140Z,58.31
2023-04-18T03:17:04.411Z,57.78
2023-04-18T03:19:40.815Z,58.08
2023-04-18T03:22:12.714Z,57.76
2023-04-18T03:24:48.367Z,57.61
2023-04-18T03:27:18.042Z,57.64
2023-04-18T03:29:47.979Z,58.46
2023-04-18T03:32:18.565Z,57.56
2023-04-18T03:34:49.062Z,57.38
2023-04-18T03:37:18.403Z,57.15
2023-04-18T03:39:52.524Z,57.65
2023-04-18T03:42:22.533Z,56.99
2023-04-18T03:44:51.623Z,56.55
2023-04-18T03:47:20.714Z,56.18
2023-04-18T03:49:57.047Z,56.52
2023-04-18T03:52:29.708Z,57.29
2023-04-18T03:54:59.349Z,56.69
2023-04-18T03:57:33.584Z,55.76
2023-04-18T04:00:08.301Z,55.87
2023-04-18T04:02:45.639Z,56.31
2023-04-18T04:05:22.720Z,55.01
2023-04-18T04:07:52.990Z,54.59
2023-04-18T04:10:22.179Z,54.20
2023-04-18T04:12:52.553Z,54.62
2023-04-18T04:15:22.522Z,53.96
2023-04-18T04:17:57.807Z,53.56
2023-04-18T04:20:28.290Z,54.03
2023-04-18T04:23:06.462Z,53.95
2023-04-18T04:25:38.777Z,53.77
2023-04-18T04:28:16.123Z,54.21
2023-04-18T04:30:55.714Z,54.39
2023-04-18T04:33:28.799Z,53.83
2023-04-18T04:36:03.249Z,53.73
2023-04-18T04:38:34.537Z,54.03
2023-04-18T04:41:03.896Z,54.43
2023-04-18T04:43:32.838Z,53.82
2023-04-18T04:46:03.996Z,54.30
2023-04-18T04:48:33.056Z,54.30
2023-04-18T04:51:03.517Z,54.68
2023-04-18T04:53:32.616Z,54.39
2023-04-18T04:56:04.950Z,53.95
2023-04-18T04:58:36.952Z,53.18
2023-04-18T05:01:25.230Z,53.60
2023-04-18T05:03:54.361Z,53.74
2023-04-18T05:06:25.958Z,53.20
2023-04-18T05:08:56.161Z,52.68
2023-04-18T05:11:25.499Z,51.92
2023-04-18T05:13:54.515Z,51.87
2023-04-18T05:16:23.582Z,51.08
2023-04-18T05:18:52.944Z,50.71
2023-04-18T05:21:21.910Z,50.92
2023-04-18T05:23:52.312Z,50.65
2023-04-18T05:26:21.525Z,50.61
2023-04-18T05:28:50.770Z,50.46
2023-04-18T05:31:20.009Z,50.62
2023-04-18T05:34:07.815Z,50.38
2023-04-18T05:36:36.857Z,50.60
2023-04-18T05:39:26.167Z,51.07
2023-04-18T05:41:55.833Z,51.30
2023-04-18T05:44:25.454Z,51.42
2023-04-18T05:46:54.446Z,51.22
2023-04-18T05:49:23.704Z,51.74
2023-04-18T05:51:53.526Z,51.79
2023-04-18T05:54:22.648Z,52.18
2023-04-18T05:56:53.103Z,52.41
2023-04-18T05:59:22.099Z,52.43
2023-04-18T06:01:51.696Z,52.22
2023-04-18T06:04:21.643Z,52.26
2023-04-18T06:06:51.028Z,52.83
2023-04-18T06:09:20.130Z,52.71
2023-04-18T06:11:49.290Z,52.97
2023-04-18T06:14:19.606Z,52.83
2023-04-18T06:16:48.735Z,52.42
2023-04-18T06:19:17.733Z,51.86
2023-04-18T06:21:46.669Z,52.00
2023-04-18T06:24:16.556Z,51.21
2023-04-18T06:26:46.702Z,50.75
2023-04-18T06:29:18.166Z,49.87
2023-04-18T06:31:48.796Z,49.64
2023-04-18T06:34:17.957Z,48.76
2023-04-18T06:36:46.873Z,48.00
2023-04-18T06:39:17.104Z,47.76
2023-04-18T06:41:46.222Z,47.48
2023-04-18T06:44:22.914Z,46.86
2023-04-18T06:46:53.370Z,46.16
2023-04-18T06:49:26.498Z,46.49
2023-04-18T06:51:55.830Z,45.93
2023-04-18T06:54:24.944Z,45.86
2023-04-18T06:56:54.097Z,46.12
2023-04-18T06:59:23.533Z,45.95
2023-04-18T07:01:54.170Z,46.51
2023-04-18T07:04:23.280Z,46.82
2023-04-18T07:06:53.198Z,46.40
2023-04-18T07:09:22.821Z,46.54
2023-04-18T07:11:52.776Z,46.55
2023-04-18T07:14:24.502Z,46.28
2023-04-18T07:16:55.158Z,46.13
2023-04-18T07:19:24.292Z,46.26
2023-04-18T07:21:54.158Z,46.44
2023-04-18T07:24:24.352Z,45.90
2023-04-18T07:26:55.225Z,46.70
2023-04-18T07:29:24.898Z,45.75
2023-04-18T07:31:55.460Z,45.17
2023-04-18T07:34:27.187Z,45.13
2023-04-18T07:36:56.377Z,45.40
2023-04-18T07:39:25.490Z,45.42
2023-04-18T07:41:54.531Z,45.12
2023-04-18T07:44:25.429Z,44.87
2023-04-18T07:46:55.927Z,44.52
2023-04-18T07:49:24.993Z,42.86
2023-04-18T07:51:54.671Z,43.37
2023-04-18T07:54:23.857Z,43.41
2023-04-18T07:56:53.370Z,42.99
2023-04-18T07:59:22.513Z,43.25
2023-04-18T08:01:51.485Z,42.54
2023-04-18T08:04:21.917Z,42.45
2023-04-18T08:06:51.013Z,42.03
2023-04-18T08:09:20.720Z,41.78
2023-04-18T08:11:49.994Z,41.52
2023-04-18T08:14:19.011Z,41.89
2023-04-18T08:16:48.209Z,42.57
2023-04-18T08:19:17.284Z,41.96
2023-04-18T08:21:47.607Z,40.98
2023-04-18T08:24:16.599Z,40.54
2023-04-18T08:26:45.908Z,40.16
2023-04-18T08:29:15.383Z,39.54
2023-04-18T08:31:44.559Z,38.55
2023-04-18T08:34:14.470Z,39.35
2023-04-18T08:36:43.518Z,39.24
2023-04-18T08:39:14.224Z,40.48
2023-04-18T08:41:44.729Z,40.10
2023-04-18T08:44:13.966Z,40.59
2023-04-18T08:46:43.058Z,40.30
2023-04-18T08:49:12.870Z,39.80
2023-04-18T08:51:44.228Z,39.97
2023-04-18T08:54:16.193Z,39.40
2023-04-18T08:56:45.543Z,39.29
2023-04-18T08:59:14.847Z,38.73
2023-04-18T09:01:57.013Z,38.75
2023-04-18T09:04:37.534Z,38.40
2023-04-18T09:07:08.331Z,38.76
2023-04-18T09:09:46.351Z,38.33
2023-04-18T09:12:18.470Z,38.71
2023-04-18T09:14:48.635Z,39.17
2023-04-18T09:17:33.210Z,39.58
2023-04-18T09:20:06.362Z,39.02
2023-04-18T09:22:48.160Z,39.41
2023-04-18T09:25:35.132Z,39.06
2023-04-18T09:28:05.468Z,39.28
2023-04-18T09:30:38.096Z,39.28
2023-04-18T09:33:09.714Z,39.35
2023-04-18T09:35:39.000Z,39.45
2023-04-18T09:38:09.715Z,39.70
2023-04-18T09:40:40.165Z,39.47
2023-04-18T09:43:22.904Z,39.69
2023-04-18T09:45:53.470Z,39.56
2023-04-18T09:48:23.583Z,40.03
2023-04-18T09:50:53.711Z,40.38
2023-04-18T09:53:22.890Z,40.26
2023-04-18T09:55:57.509Z,40.32
2023-04-18T09:58:30.588Z,40.64
2023-04-18T10:01:00.622Z,40.81
2023-04-18T10:03:35.816Z,40.75
2023-04-18T10:06:05.611Z,40.68
2023-04-18T10:08:35.257Z,40.57
2023-04-18T10:11:06.374Z,40.43
2023-04-18T10:13:38.006Z,40.21
2023-04-18T10:16:08.053Z,39.92
2023-04-18T10:18:37.807Z,40.01
2023-04-18T10:21:07.246Z,39.87
2023-04-18T10:23:38.100Z,39.82
2023-04-18T10:26:09.412Z,39.95
2023-04-18T10:29:01.169Z,40.00
2023-04-18T10:31:30.858Z,39.79
2023-04-18T10:34:05.285Z,39.89
2023-04-18T10:36:34.745Z,39.51
2023-04-18T10:39:21.102Z,39.27
2023-04-18T10:41:52.729Z,39.00
2023-04-18T10:44:23.823Z,39.22
2023-04-18T10:47:42.104Z,39.96
2023-04-18T10:50:17.260Z,40.34
2023-04-18T10:52:46.651Z,40.62
2023-04-18T10:55:19.672Z,40.19
2023-04-18T10:57:52.459Z,40.28
2023-04-18T11:00:24.380Z,40.60
2023-04-18T11:02:56.174Z,40.92
2023-04-18T11:05:27.273Z,41.00
2023-04-18T11:07:56.654Z,41.27
2023-04-18T11:10:27.207Z,40.86
2023-04-18T11:13:04.526Z,40.65
2023-04-18T11:15:33.830Z,40.80
2023-04-18T11:18:04.749Z,40.72
2023-04-18T11:20:59.143Z,40.63
2023-04-18T11:23:28.773Z,40.98
2023-04-18T11:25:58.749Z,40.85
2023-04-18T11:28:29.125Z,40.89
2023-04-18T11:31:00.463Z,41.07
2023-04-18T11:33:30.519Z,40.43
2023-04-18T11:35:59.989Z,40.39
2023-04-18T11:38:47.677Z,39.85
2023-04-18T11:41:17.521Z,40.34
2023-04-18T11:43:48.384Z,40.74
2023-04-18T11:46:17.621Z,41.08
2023-04-18T11:48:48.072Z,41.43
2023-04-18T11:51:38.752Z,41.50
2023-04-18T11:54:28.227Z,41.24
2023-04-18T11:56:57.692Z,40.94
2023-04-18T11:59:51.539Z,41.18
2023-04-18T12:02:21.049Z,41.14
2023-04-18T12:04:56.318Z,41.55
2023-04-18T12:07:46.750Z,41.53
2023-04-18T12:10:26.934Z,41.36
2023-04-18T12:13:15.640Z,41.58
2023-04-18T12:15:47.534Z,41.97
2023-04-18T12:18:19.925Z,41.69
2023-04-18T12:20:51.830Z,41.36
2023-04-18T12:23:31.774Z,41.64
2023-04-18T12:26:02.618Z,41.58
2023-04-18T12:28:33.636Z,41.99
2023-04-18T12:33:52.231Z,42.11
2023-04-18T12:36:38.641Z,42.12
2023-04-18T12:39:07.763Z,42.15
2023-04-18T12:41:36.935Z,42.41
2023-04-18T12:44:06.990Z,42.46
2023-04-18T12:46:37.704Z,42.15
2023-04-18T12:49:06.875Z,42.31
2023-04-18T12:51:54.814Z,42.26
2023-04-18T12:54:25.803Z,42.16
2023-04-18T12:57:13.268Z,41.66
2023-04-18T12:59:45.655Z,41.70
2023-04-18T13:02:16.210Z,41.79
2023-04-18T13:05:03.648Z,41.87
2023-04-18T13:07:58.669Z,41.38
2023-04-18T13:10:53.433Z,41.21
2023-04-18T13:13:42.566Z,41.48
2023-04-18T13:16:12.099Z,41.27
2023-04-18T13:19:01.500Z,41.58
2023-04-18T13:21:31.506Z,41.53
2023-04-18T13:24:19.140Z,42.59
2023-04-18T13:27:24.212Z,42.69
2023-04-18T13:30:12.006Z,43.26
2023-04-18T13:32:42.164Z,43.15
2023-04-18T13:35:50.337Z,43.40
2023-04-18T13:38:19.365Z,43.52
2023-04-18T13:40:50.510Z,44.10
2023-04-18T13:43:23.009Z,43.90
2023-04-18T13:45:52.232Z,44.05
2023-04-18T13:48:21.383Z,44.36
2023-04-18T13:51:10.248Z,44.70
2023-04-18T13:54:17.052Z,45.19
2023-04-18T13:57:04.622Z,45.24
2023-04-18T13:59:33.963Z,45.50
2023-04-18T14:02:21.640Z,45.61
2023-04-18T14:05:26.710Z,46.17
2023-04-18T14:08:34.090Z,46.43
2023-04-18T14:11:20.436Z,46.23
2023-04-18T14:13:49.769Z,46.40
2023-04-18T14:16:54.780Z,46.83
2023-04-18T14:19:42.475Z,46.30
2023-04-18T14:22:12.190Z,46.22
2023-04-18T14:24:43.026Z,46.41
2023-04-18T14:27:12.199Z,46.13
2023-04-18T14:29:41.349Z,46.01
2023-04-18T14:32:10.716Z,46.16
2023-04-18T14:34:39.996Z,46.15
2023-04-18T14:37:09.702Z,46.19
2023-04-18T14:39:39.252Z,46.34
2023-04-18T14:42:09.755Z,46.04
2023-04-18T14:44:38.859Z,45.87
2023-04-18T14:47:08.010Z,46.06
2023-04-18T14:49:37.358Z,45.84
2023-04-18T14:52:06.636Z,45.98
2023-04-18T14:54:35.675Z,45.85
2023-04-18T14:57:04.906Z,46.29
2023-04-18T14:59:35.430Z,46.08
2023-04-18T15:02:04.919Z,46.23
2023-04-18T15:04:51.935Z,46.17
2023-04-18T15:07:20.981Z,46.16
2023-04-18T15:09:50.487Z,45.97
2023-04-18T15:12:19.510Z,46.16
2023-04-18T15:14:50.441Z,46.28
2023-04-18T15:17:19.378Z,46.71
2023-04-18T15:19:49.189Z,46.54
2023-04-18T15:22:18.321Z,46.83
2023-04-18T15:24:47.543Z,47.17
2023-04-18T15:27:16.562Z,47.53
2023-04-18T15:29:45.585Z,47.40
2023-04-18T15:32:16.452Z,47.72
2023-04-18T15:34:45.713Z,48.10
2023-04-18T15:37:14.794Z,48.34
2023-04-18T15:39:43.875Z,48.58
2023-04-18T15:42:13.033Z,49.20
2023-04-18T15:44:42.072Z,49.15
2023-04-18T15:47:30.281Z,49.51
2023-04-18T15:50:01.043Z,49.71
2023-04-18T15:52:31.044Z,50.15
2023-04-18T15:55:00.554Z,49.63
2023-04-18T15:57:30.535Z,49.88
2023-04-18T15:59:59.777Z,50.12
2023-04-18T16:02:29.081Z,50.25
2023-04-18T16:04:58.197Z,50.25
2023-04-18T16:07:28.762Z,50.77
2023-04-18T16:09:57.693Z,50.90
2023-04-18T16:12:26.860Z,50.85
2023-04-18T16:14:56.100Z,50.92
2023-04-18T16:17:25.140Z,51.13
2023-04-18T16:19:54.457Z,51.20
2023-04-18T16:22:23.567Z,51.35
2023-04-18T16:24:54.196Z,51.52
2023-04-18T16:27:23.268Z,51.78
2023-04-18T16:29:53.900Z,52.36
2023-04-18T16:32:23.072Z,52.20
2023-04-18T16:34:52.422Z,52.93
2023-04-18T16:37:21.698Z,52.89
2023-04-18T16:39:51.337Z,52.88
2023-04-18T16:42:21.852Z,52.94
2023-04-18T16:44:50.981Z,53.18
2023-04-18T16:47:20.465Z,53.35
2023-04-18T16:49:50.859Z,53.92
2023-04-18T16:52:20.056Z,54.69
2023-04-18T16:54:51.233Z,54.31
2023-04-18T16:57:22.943Z,54.38
2023-04-18T16:59:52.246Z,54.05
2023-04-18T17:02:21.672Z,55.13
2023-04-18T17:04:52.391Z,55.65
2023-04-18T17:07:21.674Z,55.73
2023-04-18T17:09:50.770Z,55.47
2023-04-18T17:12:19.839Z,55.79
2023-04-18T17:14:50.256Z,56.02
2023-04-18T17:17:19.377Z,55.58
2023-04-18T17:19:48.849Z,55.90
2023-04-18T17:22:18.256Z,56.18
2023-04-18T17:27:34.007Z,56.60
2023-04-18T17:30:04.885Z,56.50
2023-04-18T17:32:35.351Z,56.31
2023-04-18T17:35:06.502Z,56.46
2023-04-18T17:37:54.095Z,56.48
2023-04-18T17:40:23.429Z,56.77
2023-04-18T17:42:52.603Z,56.61
2023-04-18T17:45:23.090Z,56.60
2023-04-18T17:47:57.627Z,57.06
2023-04-18T17:50:26.948Z,56.51
2023-04-18T17:52:58.632Z,57.44
2023-04-18T17:55:28.020Z,57.60
2023-04-18T17:57:57.590Z,57.97
2023-04-18T18:00:28.564Z,57.60
2023-04-18T18:03:16.285Z,57.64
2023-04-18T18:05:47.549Z,57.33
2023-04-18T18:08:17.394Z,57.90
2023-04-18T18:10:47.383Z,58.04
2023-04-18T18:13:16.643Z,57.68
2023-04-18T18:15:47.037Z,57.74
2023-04-18T18:18:29.918Z,57.68
2023-04-18T18:20:59.309Z,57.81
2023-04-18T18:23:28.419Z,57.53
2023-04-18T18:25:57.423Z,57.58
2023-04-18T18:28:26.614Z,57.51
2023-04-18T18:30:57.443Z,58.13
2023-04-18T18:33:26.579Z,57.99
2023-04-18T18:36:14.607Z,57.58
2023-04-18T18:38:43.852Z,57.31
2023-04-18T18:41:12.921Z,57.69
2023-04-18T18:43:42.073Z,57.22
2023-04-18T18:46:12.626Z,57.44
2023-04-18T18:48:41.790Z,57.38
2023-04-18T18:51:11.709Z,57.33
2023-04-18T18:53:40.812Z,57.40
2023-04-18T18:56:28.270Z,57.46
2023-04-18T18:58:57.277Z,57.58
2023-04-18T19:01:30.328Z,57.20
2023-04-18T19:03:59.530Z,56.83
2023-04-18T19:06:32.353Z,56.67
2023-04-18T19:09:37.374Z,56.57
2023-04-18T19:12:08.484Z,56.43
2023-04-18T19:14:37.455Z,56.27
2023-04-18T19:17:08.037Z,56.75
2023-04-18T19:19:37.357Z,56.62
2023-04-18T19:22:06.972Z,56.80
2023-04-18T19:24:54.619Z,56.74
2023-04-18T19:27:24.672Z,56.72
2023-04-18T19:29:53.909Z,56.90
2023-04-18T19:32:42.680Z,56.94
2023-04-18T19:35:13.508Z,57.13
2023-04-18T19:38:05.479Z,57.33
2023-04-18T19:40:59.173Z,57.39
2023-04-18T19:43:29.525Z,57.39
2023-04-18T19:45:58.681Z,57.64
2023-04-18T19:48:29.229Z,57.08
2023-04-18T19:50:58.790Z,56.87
2023-04-18T19:53:27.765Z,57.02
2023-04-18T19:55:57.564Z,56.85
2023-04-18T19:58:36.633Z,57.27
2023-04-18T20:01:06.298Z,56.93
2023-04-18T20:03:54.710Z,56.81
2023-04-18T20:06:25.252Z,56.70
2023-04-18T20:08:54.796Z,56.71
2023-04-18T20:11:32.816Z,56.60
2023-04-18T20:14:06.713Z,56.21
2023-04-18T20:16:53.312Z,55.99
2023-04-18T20:19:29.957Z,55.98
2023-04-18T20:22:35.499Z,56.03
2023-04-18T20:25:04.632Z,56.32
2023-04-18T20:27:52.912Z,56.57
2023-04-18T20:30:39.431Z,56.17
2023-04-18T20:33:45.738Z,56.38
2023-04-18T20:36:33.575Z,56.38
2023-04-18T20:39:03.853Z,55.91
2023-04-18T20:41:34.849Z,55.56
2023-04-18T20:44:22.736Z,55.13
2023-04-18T20:47:10.536Z,54.86
2023-04-18T20:49:39.795Z,54.73
2023-04-18T20:52:10.775Z,54.45
2023-04-18T20:54:41.252Z,54.45
2023-04-18T20:57:10.591Z,54.48
2023-04-18T20:59:39.836Z,54.43
2023-04-18T21:02:10.094Z,54.66
2023-04-18T21:05:16.846Z,54.55
2023-04-18T21:07:47.087Z,54.46
2023-04-18T21:10:33.429Z,54.52
2023-04-18T21:15:57.139Z,54.19
2023-04-18T21:18:44.947Z,54.53
2023-04-18T21:21:14.125Z,54.50
2023-04-18T21:24:37.714Z,54.73
2023-04-18T21:27:08.480Z,54.26
2023-04-18T21:29:37.627Z,54.63
2023-04-18T21:32:25.543Z,54.66
2023-04-18T21:34:56.033Z,54.70
2023-04-18T21:37:25.741Z,54.57
2023-04-18T21:40:12.122Z,54.56
2023-04-18T21:42:42.831Z,54.35
2023-04-18T21:45:30.838Z,54.34
2023-04-18T21:47:59.925Z,54.71
2023-04-18T21:50:29.139Z,54.65
2023-04-18T21:52:58.281Z,54.80
2023-04-18T21:55:27.599Z,54.86
2023-04-18T21:57:58.172Z,54.81
2023-04-18T22:00:27.808Z,54.88
2023-04-18T22:02:57.161Z,54.50
2023-04-18T22:05:47.358Z,54.28
2023-04-18T22:08:17.646Z,54.31
2023-04-18T22:10:50.571Z,54.24
2023-04-18T22:13:21.071Z,54.12
2023-04-18T22:16:07.818Z,54.10
2023-04-18T22:18:37.937Z,54.34
2023-04-18T22:21:09.668Z,54.36
2023-04-18T22:23:38.658Z,54.34
2023-04-18T22:26:07.603Z,54.72
2023-04-18T22:28:38.186Z,54.20
2023-04-18T22:31:07.279Z,54.58
2023-04-18T22:33:36.458Z,54.22
2023-04-18T22:36:24.440Z,54.21
2023-04-18T22:38:53.559Z,54.34
2023-04-18T22:41:22.536Z,54.34
2023-04-18T22:43:52.869Z,54.13
2023-04-18T22:46:21.904Z,54.02
2023-04-18T22:48:50.945Z,53.75
2023-04-18T22:51:20.377Z,53.89
2023-04-18T22:53:49.491Z,53.48
2023-04-18T22:56:18.409Z,53.72
2023-04-18T22:58:47.600Z,53.47
2023-04-18T23:01:18.113Z,53.48
2023-04-18T23:03:47.259Z,53.42
2023-04-18T23:06:16.492Z,53.46
2023-04-18T23:08:45.580Z,53.14
2023-04-18T23:11:14.517Z,53.06
2023-04-18T23:13:43.578Z,53.10
2023-04-18T23:16:12.745Z,52.75
2023-04-18T23:18:43.392Z,52.64
2023-04-18T23:21:12.291Z,52.63
2023-04-18T23:23:41.334Z,52.63
2023-04-18T23:26:14.625Z,52.51
2023-04-18T23:28:43.783Z,52.67
2023-04-18T23:31:13.362Z,52.70
2023-04-18T23:33:44.443Z,52.44
2023-04-18T23:36:13.978Z,52.34
2023-04-18T23:38:43.351Z,52.33
2023-04-18T23:41:12.345Z,52.65
2023-04-18T23:43:41.300Z,53.04
2023-04-18T23:46:10.528Z,52.79
2023-04-18T23:48:39.466Z,52.64
2023-04-18T23:51:09.745Z,52.77
2023-04-18T23:53:38.803Z,52.74
2023-04-18T23:56:08.505Z,52.69
2023-04-18T23:58:37.586Z,52.93
